Weather observations for the past three days for
Fredericksburg, Shannon Airport
Imperial (Metric)
Date Time (edt) Wind (mph) Vis. (mi.) Weather Sky Cond. Temperature (ºF) Relative Humidity Wind Chill (°F) Heat Index (°F) Pressure Precipitation (in)
Air Dwpt 6 hour altimeter (in) sea level (mb) 1 hr 3 hr 6 hr
Max. Min.
07 19:55 SW 3 10.00 Fair CLR 55.6 46.8 58.5 54.9 72% 29.84 0.0
07 19:35 SW 3 10.00 Fair CLR 56.7 46.4 69% 29.83 0.0
07 19:15 SW 6 10.00 Fair CLR 57.4 46.4 67% 29.82 0.0
07 18:55 SW 5 10.00 Partly Cloudy SCT100 58.1 46.2 65% 29.82 0.0
07 18:35 S 6 10.00 Mostly Cloudy BKN100 58.1 46.4 65% 29.82 0.0
07 18:15 S 7 10.00 Mostly Cloudy BKN100 58.1 47.1 67% 29.82 0.0
07 17:55 S 7 10.00 Mostly Cloudy BKN090 57.6 47.3 69% 29.81 0.0
07 17:35 S 6 10.00 Mostly Cloudy SCT022 SCT090 BKN120 57.7 46.6 67% 29.81 0.0
07 17:15 S 7 10.00 Mostly Cloudy SCT022 SCT090 BKN110 58.3 47.1 67% 29.81 0.0
07 16:15 S 5 10.00 Mostly Cloudy SCT029 SCT055 BKN090 56.3 46.8 71% 29.82 0.0
07 15:55 SE 6 10.00 Light Rain SCT065 BKN075 OVC090 55.6 45 68% 29.82 0.0
07 15:35 S 7 10.00 Light Rain BKN075 OVC095 55.9 45 67% 29.84 0.0
07 15:15 E 6 10.00 Overcast SCT029 SCT060 OVC075 56.1 42.8 61% 29.83 0.0
07 14:55 SE 6 10.00 Light Rain SCT021 SCT029 OVC075 55.9 44.8 66% 29.84 0.0
07 14:35 E 3 10.00 Light Rain BKN050 OVC075 55.4 43.7 65% 29.85 0.0
07 14:15 SE 5 10.00 Overcast BKN050 OVC070 57.2 40.8 55% 29.86 0.0
07 13:55 E 3 10.00 Overcast SCT050 OVC070 56.8 36.3 58.1 56.5 46% 29.86 0.0
07 13:35 NE 6 10.00 Light Drizzle SCT050 BKN060 OVC075 57 38.5 50% 29.86 0.0
07 13:15 NE 7 10.00 Light Rain SCT049 OVC060 56.8 36 46% 29.86 0.0
07 12:55 N 7 10.00 Overcast BKN049 OVC060 57.6 39.7 52% 29.86 0.0
07 12:35 N 3 10.00 Overcast OVC049 56.8 40.1 54% 29.88 0.0
07 12:15 N 3 10.00 Overcast OVC049 57.2 39.6 52% 29.89 0.0
07 11:55 N 7 10.00 Overcast OVC047 57.4 37.9 48% 29.88 0.0
07 11:35 N 10 10.00 Overcast OVC047 57.9 39.6 51% 29.88 0.0
07 11:15 N 6 10.00 Overcast OVC047 57.2 40.6 54% 29.89 0.0
07 10:55 N 8 10.00 Overcast OVC045 57.4 42.1 57% 29.88 0.0
07 10:35 N 5 10.00 Overcast OVC045 57.4 42.8 58% 29.91 0.0
07 10:15 N 6 10.00 Overcast OVC045 57.6 41.7 56% 29.9 0.0
07 09:55 N 9 G 16 10.00 Overcast OVC045 57.6 42.3 57% 29.91 0.0
07 09:35 N 9 10.00 Overcast OVC045 57.4 43.3 60% 29.9 0.0
07 09:15 N 8 G 16 10.00 Overcast OVC043 57.6 44.1 61% 29.9 0.0
07 08:55 N 7 10.00 Overcast OVC043 57.4 46.6 67% 29.9 0.0
07 08:35 N 7 10.00 Overcast OVC041 57.7 48.2 71% 29.9 0.0
07 08:15 N 6 10.00 Overcast OVC039 57.4 48.4 72% 29.89 0.0
07 07:55 N 3 10.00 Overcast OVC037 56.7 49.3 59.2 55.9 76% 29.88 0.0 0.01
07 07:35 N 5 10.00 Overcast OVC037 56.3 49.5 78% 29.89 0.0
07 07:15 N 5 10.00 Overcast OVC037 56.3 50.7 82% 29.88 0.0
07 06:55 N 6 10.00 Overcast OVC037 56.3 50.7 82% 29.88 0.0
07 06:35 N 5 10.00 Overcast OVC037 56.1 50.9 83% 29.88 0.0
07 06:15 N 3 10.00 Overcast OVC037 56.3 51.1 83% 29.86 0.0
07 05:55 N 3 10.00 Overcast OVC035 56.3 51.1 83% 29.87 0.0
07 05:35 N 3 10.00 Overcast OVC035 56.5 50.5 81% 29.87 0.0
07 04:55 N 3 10.00 Overcast OVC033 56.3 56.3 100% 29.86 0.0 0.01 0.01
07 04:35 N 3 10.00 Light Rain OVC033 56.1 55.6 98% 29.86 0.0 0.01
07 04:15 N 7 10.00 Rain OVC033 57.2 54.5 91% 29.88 0.0
07 03:55 N 3 10.00 Overcast OVC033 57.2 57.2 100% 29.85 0.0
07 03:35 N 5 10.00 Overcast OVC031 57.6 57.6 100% 29.84 0.0
07 03:15 NW 5 10.00 Overcast OVC031 57.7 57.7 100% 29.84 0.0
07 02:55 NW 5 10.00 Overcast SCT017 BKN031 OVC043 58.1 57.7 99% 29.84 0.0
07 02:35 N 12 G 17 10.00 Light Drizzle SCT017 OVC025 58.3 58.3 100% 29.85 0.0
07 02:15 NW 7 10.00 Light Rain OVC023 0 0 0% 29.83 0.0
07 01:55 NE 6 10.00 Light Rain OVC023 0 0 0% 29.8 0.0 0.01 0.01
07 01:35 N 5 10.00 Light Rain SCT010 OVC021 0 0 0% 29.8 0.0 0.01
07 01:15 N 13 G 18 10.00 Rain BKN010 BKN014 OVC019 0 0 0% 29.83 0.0 0.01
07 00:55 N 8 10.00 Light Rain SCT014 OVC019 0 0 0% 29.83 0.0
07 00:35 NW 8 10.00 Light Rain BKN021 OVC028 0 0 0% 29.82 0.0
07 00:15 Calm 10.00 Rain BKN028 BKN060 OVC090 0 0 0% 29.81 0.0
06 23:55 NW 3 10.00 Light Rain SCT060 SCT085 BKN110 65.7 65.7 100% 29.81 0.0
06 23:35 Calm 10.00 Mostly Cloudy SCT048 BKN060 BKN080 65.7 65.3 99% 29.8 0.0
06 23:15 Calm 10.00 Overcast OVC048 67.1 61.9 83% 29.81 0.0
06 22:55 NW 3 10.00 Mostly Cloudy BKN050 BKN060 66.6 62.1 86% 29.8 0.0
06 22:35 Calm 10.00 Fair CLR 66.7 61.7 84% 29.79 0.0
06 22:15 Calm 10.00 Partly Cloudy SCT060 66.4 61.7 85% 29.78 0.0
06 21:55 S 3 10.00 Partly Cloudy SCT060 67.3 60.8 80% 29.79 0.0
06 21:35 Calm 10.00 Fair CLR 67.6 60.8 79% 29.8 0.0
06 21:15 SW 6 10.00 Fair CLR 67.6 60.6 78% 29.8 0.0
06 20:55 SW 5 10.00 Fair CLR 68.2 60.4 76% 29.79 0.0
06 20:35 S 8 10.00 Fair CLR 68.9 60.4 75% 29.78 0.0
06 20:15 SW 7 10.00 Fair CLR 69.3 60.4 74% 29.79 0.0
06 19:55 SW 10 G 16 10.00 Fair CLR 69.8 60.8 72.7 66.7 73% 29.78 0.0
06 19:35 S 9 10.00 Fair CLR 70.7 60.8 71% 29.77 0.0
06 19:15 S 10 G 16 10.00 Fair CLR 70.7 60.8 71% 29.77 0.0
06 18:55 SW 12 10.00 Partly Cloudy SCT100 71.1 60.8 70% 29.77 0.0
06 18:35 S 12 10.00 Mostly Cloudy BKN100 71.4 60.4 68% 29.77 0.0
06 18:15 SW 15 G 18 10.00 Fair CLR 71.8 60.1 67% 29.78 0.0
06 17:55 S 13 10.00 Fair CLR 72.5 60.3 66% 29.77 0.0
06 17:35 SW 13 G 21 10.00 Fair CLR 72.5 59.9 65% 29.78 0.0
06 17:15 SW 14 G 23 10.00 Fair CLR 71.8 59.9 66% 29.77 0.0
06 16:55 SW 20 G 28 10.00 Fair CLR 71.1 59.7 68% 29.77 0.0
06 16:35 SW 17 G 24 10.00 Fair CLR 70.7 59.4 67% 29.77 0.0
06 16:15 SW 14 G 18 10.00 Fair CLR 70.2 59.5 69% 29.78 0.0
06 15:55 S 14 G 20 10.00 Fair CLR 68.4 59.2 73% 29.77 0.0
06 15:35 S 12 G 18 10.00 Partly Cloudy SCT021 SCT055 68 59.2 74% 29.78 0.0
06 15:15 S 9 10.00 Partly Cloudy SCT021 67.6 59.4 75% 29.79 0.0
06 14:55 S 14 10.00 Mostly Cloudy BKN021 67.3 59.5 76% 29.8 0.0
06 14:35 SW 12 G 24 10.00 Mostly Cloudy BKN021 67.5 59.5 76% 29.81 0.0
06 14:15 SW 13 G 18 10.00 Mostly Cloudy BKN019 67.1 59.9 78% 29.81 0.0
06 13:55 SW 9 G 23 10.00 Mostly Cloudy BKN019 66.9 59.7 78% 29.81 0.0 0.03
06 13:35 SW 13 G 23 10.00 Mostly Cloudy BKN019 66.4 60.3 81% 29.81 0.0
06 13:15 SW 13 10.00 Partly Cloudy SCT019 SCT026 65.7 60.4 83% 29.82 0.0
06 12:55 S 14 G 20 10.00 Partly Cloudy SCT019 SCT026 SCT031 65.5 61.7 88% 29.82 0.0
06 12:35 S 15 G 22 10.00 Partly Cloudy SCT028 SCT034 SCT049 64.8 62.2 92% 29.83 0.0
06 12:15 S 10 G 17 10.00 Light Rain SCT028 SCT050 BKN110 64.4 63.9 98% 29.84 0.0
06 11:55 S 12 10.00 Light Rain SCT034 SCT055 OVC110 63.5 63.5 100% 29.83 0.0 0.01
06 11:35 S 9 10.00 Light Rain SCT031 SCT075 OVC110 0 0 0% 29.83 0.0 0.01
06 11:15 S 13 10.00 Light Rain BKN090 OVC110 0 0 0% 29.83 0.0 0.01
06 10:55 S 12 G 23 10.00 Light Rain SCT055 BKN070 OVC090 0 0 0% 29.84 0.0 0.02 0.02
06 10:35 S 12 G 16 10.00 Rain SCT060 BKN070 OVC100 62.6 62.6 100% 29.86 0.0 0.02
06 10:15 S 12 G 17 10.00 Light Rain SCT070 OVC100 63.5 59.7 88% 29.86 0.0
06 09:55 S 9 10.00 Light Rain SCT032 BKN070 OVC110 62.6 58.6 87% 29.85 0.0
06 09:35 S 7 10.00 Light Rain SCT080 BKN090 OVC110 63.1 57.2 81% 29.85 0.0
06 09:15 S 8 10.00 Light Rain SCT070 BKN100 OVC120 64 56.1 76% 29.85 0.0
06 08:55 S 12 10.00 Light Rain OVC110 64.4 55.8 74% 29.85 0.0
06 08:35 S 12 10.00 Light Rain OVC110 65.3 54.3 68% 29.84 0.0
06 08:15 S 10 10.00 Mostly Cloudy BKN110 65.8 53.4 64% 29.84 0.0
06 07:55 S 12 10.00 Light Drizzle BKN110 66.2 53.4 69.6 65.8 64% 29.84 0.0
06 07:35 S 15 G 22 10.00 Mostly Cloudy SCT075 SCT100 BKN120 66.2 53.2 63% 29.84 0.0
06 07:15 SW 12 G 17 10.00 Light Rain SCT110 66.2 54 65% 29.84 0.0
06 06:55 S 10 G 16 10.00 Fair CLR 66.2 54 65% 29.83 0.0
06 06:35 S 14 G 18 10.00 Fair CLR 66 54 65% 29.84 0.0
06 06:15 S 9 10.00 Fair CLR 65.8 54 66% 29.84 0.0
06 05:55 S 9 10.00 Fair CLR 66.2 53.8 64% 29.83 0.0
06 05:35 S 12 10.00 Fair CLR 66.2 53.6 64% 29.83 0.0
06 05:15 S 10 10.00 Fair CLR 66.2 53.6 64% 29.83 0.0
06 04:55 S 12 G 16 10.00 Fair CLR 66.2 53.2 63% 29.84 0.0
06 04:35 S 10 10.00 Fair CLR 66.4 53.1 62% 29.84 0.0
06 04:15 S 12 10.00 Fair CLR 66.6 52.9 62% 29.84 0.0
06 03:55 S 10 G 17 10.00 Fair CLR 67.1 52.9 60% 29.84 0.0
06 03:35 S 13 10.00 Fair CLR 67.6 52.7 59% 29.84 0.0
06 03:15 S 15 G 24 10.00 Fair CLR 68 52.7 58% 29.84 0.0
06 02:55 S 13 G 20 10.00 Fair CLR 68.4 52.7 58% 29.84 0.0
06 02:35 S 13 G 20 10.00 Fair CLR 68.9 52.7 56% 29.85 0.0
06 01:55 S 10 G 16 10.00 Fair CLR 69.8 51.8 78.3 69.8 53% 29.85 0.0
06 01:35 S 10 10.00 Fair CLR 70.7 51.8 51% 29.86 0.0
06 01:15 S 13 G 20 10.00 Fair CLR 71.4 51.3 49% 29.86 0.0
06 00:55 S 14 G 23 10.00 Fair CLR 72.1 51.1 48% 29.86 0.0
06 00:35 S 14 G 24 10.00 Fair CLR 72.5 50.9 47% 29.86 0.0
06 00:15 S 10 G 18 10.00 Fair CLR 72.9 50.4 45% 29.86 0.0
05 23:55 S 15 G 23 10.00 Fair CLR 73.4 50 44% 29.86 0.0
05 23:35 S 15 G 20 10.00 Fair CLR 73.4 49.6 43% 29.86 0.0
05 23:15 S 12 10.00 Fair CLR 73 49.5 43% 29.86 0.0
05 22:55 S 13 G 17 10.00 Fair CLR 72.9 49.1 43% 29.86 0.0
05 22:35 S 10 10.00 Fair CLR 72.7 48.7 43% 29.86 0.0
05 22:15 S 9 10.00 Fair CLR 73.4 48.2 41% 29.87 0.0
05 21:55 S 9 10.00 Fair CLR 73.9 47.1 39% 29.87 0.0
05 21:35 S 9 10.00 Fair CLR 74.5 46.2 37% 29.86 0.0
05 21:15 S 9 10.00 Fair CLR 75.2 45.1 34% 77 29.86 0.0
05 20:55 S 9 10.00 Fair CLR 76.5 44.4 32% 78 29.85 0.0
05 20:35 S 10 G 17 10.00 Fair CLR 77 43.9 31% 78 29.84 0.0
05 20:15 S 9 10.00 Fair CLR 77.4 43.2 30% 78 29.84 0.0
05 19:55 S 10 10.00 Fair CLR 78.3 42.8 85.6 78.3 28% 78 29.83 0.0
05 19:35 S 12 G 18 10.00 Fair CLR 79.3 42.3 27% 79 29.83 0.0
05 19:15 S 13 10.00 Fair CLR 80.4 41 25% 79 29.83 0.0
05 18:55 SW 17 G 26 10.00 Fair CLR 81.5 39 22% 80 29.83 0.0
05 18:35 S 24 G 32 10.00 Fair and Breezy CLR 82.4 38.1 21% 80 29.83 0.0
05 18:15 S 24 G 32 10.00 Fair and Breezy CLR 83.8 37.8 19% 81 29.82 0.0
05 17:55 SW 14 G 28 10.00 Fair CLR 82.9 38.8 21% 81 29.82 0.0
05 17:35 SW 17 G 22 10.00 Fair CLR 82.8 37.9 20% 80 29.82 0.0
05 17:15 SW 20 G 26 10.00 Fair CLR 85.1 37.6 18% 82 29.82 0.0
05 16:55 SW 17 G 29 10.00 Fair CLR 84.9 36.7 18% 82 29.81 0.0
05 16:35 S 21 G 33 10.00 Fair and Breezy CLR 84.9 36 17% 82 29.81 0.0
05 16:15 SW 16 G 35 10.00 Fair CLR 84.7 36.7 18% 82 29.82 0.0
05 15:55 S 22 G 28 10.00 Fair and Breezy CLR 85.3 38.8 19% 82 29.82 0.0
05 15:35 SW 20 G 29 10.00 Fair CLR 85.1 38.1 19% 82 29.83 0.0
05 15:15 SW 17 G 32 10.00 Fair CLR 84.7 38.8 20% 82 29.83 0.0
05 14:55 SW 21 G 31 10.00 Fair and Breezy CLR 84.7 39.2 20% 82 29.85 0.0
05 14:35 S 17 G 26 10.00 Fair CLR 84.2 40.6 21% 81 29.86 0.0
05 14:15 SW 18 G 28 10.00 Fair CLR 83.8 41.5 22% 81 29.87 0.0
05 13:55 S 16 G 26 10.00 Fair CLR 84 42.8 84 63.9 23% 81 29.87 0.0
05 13:35 S 20 G 26 10.00 Fair CLR 82.6 43.5 25% 81 29.87 0.0
05 13:15 SW 18 G 22 10.00 Fair CLR 82.8 42.8 24% 81 29.88 0.0
05 12:55 SW 13 G 17 10.00 Fair CLR 81.9 42.3 25% 80 29.88 0.0
05 12:35 S 15 G 23 10.00 Fair CLR 81 45.3 29% 80 29.9 0.0
05 12:15 SW 10 G 17 10.00 Fair CLR 80.1 46.8 31% 79 29.9 0.0
05 11:55 SW 15 G 22 10.00 Fair CLR 79.5 46.4 31% 79 29.91 0.0
05 11:35 SW 10 G 17 10.00 Fair CLR 78.1 46.6 33% 78 29.92 0.0
05 11:15 S 13 10.00 Fair CLR 77 46.9 35% 78 29.92 0.0
05 10:55 S 9 G 16 10.00 Fair CLR 75.4 46.8 36% 77 29.92 0.0
05 10:35 SW 10 10.00 Fair CLR 73.8 47.1 39% 29.91 0.0
05 10:15 S 10 10.00 Fair CLR 72.9 48 41% 29.92 0.0
05 09:55 SW 10 G 16 10.00 Fair CLR 71.2 46.8 42% 29.92 0.0
05 09:35 S 9 10.00 Fair CLR 69.8 46.8 44% 29.92 0.0
05 09:15 SW 13 G 17 10.00 Fair CLR 68.2 46.4 46% 29.93 0.0
05 08:55 SW 12 10.00 Fair CLR 67.1 46.6 48% 29.92 0.0
05 08:35 SW 12 G 16 10.00 Fair CLR 66 46.8 50% 29.93 0.0
05 08:15 SW 10 10.00 Fair CLR 65.1 46.9 52% 29.92 0.0
05 07:55 S 9 10.00 Fair CLR 64.4 46.8 64.4 61 53% 29.92 0.0
05 07:35 S 7 10.00 Fair CLR 63.1 46.4 55% 29.91 0.0
05 07:15 SW 6 10.00 Fair CLR 62.6 46.4 56% 29.91 0.0
05 06:55 SW 7 10.00 Fair CLR 61.7 45.9 56% 29.9 0.0
05 06:35 SW 7 10.00 Fair CLR 61.2 45.7 57% 29.9 0.0
05 06:15 SW 7 10.00 Fair CLR 61.2 45.5 57% 29.9 0.0
05 05:55 SW 10 10.00 Partly Cloudy SCT110 61.7 45.5 56% 29.89 0.0
05 05:35 SW 8 10.00 Fair CLR 61.7 45 54% 29.89 0.0
05 05:15 SW 10 G 16 10.00 Fair CLR 61.9 44.6 53% 29.89 0.0
05 04:55 S 10 10.00 Fair CLR 61.9 44.1 52% 29.89 0.0
05 04:35 SW 9 10.00 Fair CLR 61.9 43.7 52% 29.89 0.0
05 04:15 S 9 10.00 Fair CLR 61.9 45 54% 29.88 0.0
05 03:55 SW 8 10.00 Fair CLR 62.1 43.3 50% 29.88 0.0
05 03:35 SW 8 G 16 10.00 Fair CLR 62.8 43.2 49% 29.88 0.0
05 03:15 SW 10 10.00 Fair CLR 62.6 43.3 50% 29.88 0.0
05 02:55 SW 9 10.00 Fair CLR 63 43.3 49% 29.87 0.0
05 02:35 SW 10 10.00 Fair CLR 63 43.5 49% 29.87 0.0
05 02:15 S 12 10.00 Fair CLR 63.1 43.7 49% 29.87 0.0
05 01:55 S 8 10.00 Fair CLR 63.9 43.7 74.3 63.9 48% 29.87 0.0
05 01:35 S 8 10.00 Fair CLR 64.6 43.7 47% 29.86 0.0
05 01:15 S 10 10.00 Fair CLR 64.2 43.7 47% 29.86 0.0
05 00:55 S 8 10.00 Fair CLR 64.6 43.7 47% 29.86 0.0
05 00:35 S 8 10.00 Fair CLR 65.7 43.3 45% 29.86 0.0
05 00:15 S 8 10.00 Fair CLR 66.2 43.7 44% 29.86 0.0
04 23:55 S 7 10.00 Fair CLR 65.8 43.7 45% 29.86 0.0
04 23:35 SW 8 10.00 Fair CLR 66.7 43.7 43% 29.86 0.0
04 23:15 SW 9 10.00 Fair CLR 67.3 43.7 43% 29.86 0.0
04 22:55 SW 9 10.00 Fair CLR 67.1 43.7 43% 29.86 0.0
04 22:35 S 7 10.00 Fair CLR 66.4 43.7 44% 29.86 0.0
04 22:15 S 6 10.00 Fair CLR 65.8 43.7 45% 29.86 0.0
04 21:55 S 5 10.00 Fair CLR 66.7 43.2 43% 29.86 0.0
04 21:35 S 6 10.00 Fair CLR 68.9 41.9 38% 29.86 0.0
04 21:15 SW 5 10.00 Fair CLR 70.9 41 34% 29.85 0.0
04 20:55 SW 10 G 16 10.00 Partly Cloudy SCT120 72.3 40.3 31% 29.84 0.0
04 20:35 S 9 10.00 Partly Cloudy SCT090 SCT120 72.9 39.7 30% 29.83 0.0
04 20:15 S 9 10.00 Mostly Cloudy BKN100 BKN110 73.9 39.6 29% 29.83 0.0
Date Time (edt) Wind (mph) Vis. (mi.) Weather Sky Cond. Air Dwpt Max. Min. Relative Humidity Wind Chill (°F) Heat Index (°F) altimeter (in) sea level (mb) 1 hr 3 hr 6 hr
6 hour
Temperature (ºF) Pressure Precipitation (in)